Time;durP1;ratioP1;P1;durP2;ratioP2;P2;SDS_P1;SDS_P2;PMS_P1;PMS_P2;Temp;Humidity;BMP_temperature;BMP_pressure;BME280_temperature;BME280_humidity;BME280_pressure;Samples;Min_cycle;Max_cycle;Signal;HPM_P1;HPM_P2
2021/11/05 00:00:50;;;;;;;0.80;0.40;;;6.60;99.90;;;;;;5072815;28;20176;-66
2021/11/05 00:03:18;;;;;;;0.80;0.50;;;6.60;99.90;;;;;;5072909;28;20208;-66
2021/11/05 00:05:52;;;;;;;0.90;0.55;;;6.60;99.90;;;;;;5072932;28;20184;-65
2021/11/05 00:08:23;;;;;;;0.80;0.50;;;6.60;99.90;;;;;;5072992;28;20173;-66
2021/11/05 00:10:51;;;;;;;0.80;0.60;;;6.60;99.90;;;;;;5073083;28;20176;-66
2021/11/05 00:13:20;;;;;;;1.95;0.60;;;6.60;99.90;;;;;;5072835;28;20199;-66
2021/11/05 00:15:48;;;;;;;1.08;0.98;;;6.60;99.90;;;;;;5072769;28;20648;-67
2021/11/05 00:18:16;;;;;;;0.80;0.50;;;6.60;99.90;;;;;;5071251;28;20699;-68
2021/11/05 00:20:44;;;;;;;0.80;0.50;;;6.60;99.90;;;;;;5072701;28;20610;-67
2021/11/05 00:23:16;;;;;;;0.80;0.50;;;6.50;99.90;;;;;;5071551;28;20686;-66
2021/11/05 00:25:44;;;;;;;0.80;0.50;;;6.50;99.90;;;;;;5072662;28;20208;-66
2021/11/05 00:28:12;;;;;;;0.80;0.50;;;6.50;99.90;;;;;;5072880;28;20638;-66
2021/11/05 00:30:43;;;;;;;0.80;0.50;;;6.40;99.90;;;;;;5073056;28;20164;-67
2021/11/05 00:33:11;;;;;;;0.80;0.50;;;6.40;99.90;;;;;;5073895;28;20216;-67
2021/11/05 00:35:39;;;;;;;0.80;0.50;;;6.40;99.90;;;;;;5074939;28;20194;-66
2021/11/05 00:38:07;;;;;;;2.03;0.85;;;6.40;99.90;;;;;;5076130;28;20622;-67
2021/11/05 00:40:37;;;;;;;0.80;0.50;;;6.40;99.90;;;;;;5077460;28;20208;-67
2021/11/05 00:43:05;;;;;;;0.90;0.60;;;6.40;99.90;;;;;;5077843;28;20208;-67
2021/11/05 00:45:33;;;;;;;0.80;0.50;;;6.30;99.90;;;;;;5077286;28;20585;-67
2021/11/05 00:48:01;;;;;;;0.90;0.80;;;6.30;99.90;;;;;;5077119;28;20202;-66
2021/11/05 00:50:31;;;;;;;0.80;0.50;;;6.30;99.90;;;;;;5076656;28;20608;-67
2021/11/05 00:53:00;;;;;;;0.80;0.60;;;6.30;99.90;;;;;;5075892;28;20731;-66
2021/11/05 00:55:28;;;;;;;0.80;0.50;;;6.30;99.90;;;;;;5072117;28;20206;-66
2021/11/05 00:57:57;;;;;;;0.80;0.50;;;6.30;99.90;;;;;;5072009;28;20173;-66
2021/11/05 01:00:25;;;;;;;0.80;0.50;;;6.30;99.90;;;;;;5071990;28;20218;-66
2021/11/05 01:02:54;;;;;;;0.80;0.50;;;6.30;99.90;;;;;;5071900;28;20578;-67
2021/11/05 01:05:22;;;;;;;0.80;0.50;;;6.30;99.90;;;;;;5071588;28;20179;-66
2021/11/05 01:07:50;;;;;;;0.80;0.50;;;6.30;99.90;;;;;;5077804;22;20235;-67
2021/11/05 01:10:19;;;;;;;1.27;0.60;;;6.30;99.90;;;;;;5055853;28;20196;-66
2021/11/05 01:12:47;;;;;;;0.80;0.50;;;6.30;99.90;;;;;;5055016;28;20712;-65
2021/11/05 01:15:16;;;;;;;0.80;0.50;;;6.30;99.90;;;;;;5054632;28;20728;-67
2021/11/05 01:17:45;;;;;;;0.80;0.47;;;6.30;99.90;;;;;;5058408;28;20557;-67
2021/11/05 01:20:16;;;;;;;0.80;0.50;;;6.30;99.90;;;;;;5059492;28;20193;-66
2021/11/05 01:22:45;;;;;;;0.80;0.50;;;6.30;99.90;;;;;;5059072;28;20239;-67
2021/11/05 01:25:15;;;;;;;0.90;0.55;;;6.30;99.90;;;;;;5054139;28;20177;-66
2021/11/05 01:27:43;;;;;;;0.80;0.50;;;6.40;99.90;;;;;;5053849;28;20192;-67
2021/11/05 01:30:12;;;;;;;0.80;0.50;;;6.40;99.90;;;;;;5053348;28;20177;-66
2021/11/05 01:32:42;;;;;;;0.80;0.50;;;6.30;99.90;;;;;;5037534;28;20280;-66
2021/11/05 01:35:12;;;;;;;0.80;0.50;;;6.30;99.90;;;;;;5052151;28;20184;-66
2021/11/05 01:37:40;;;;;;;0.80;0.50;;;6.40;99.90;;;;;;5051926;28;20232;-67
2021/11/05 01:40:11;;;;;;;0.80;0.45;;;6.40;99.90;;;;;;5033655;28;20205;-66
2021/11/05 01:42:40;;;;;;;0.90;0.57;;;6.40;99.90;;;;;;5051612;28;20212;-67
2021/11/05 01:45:09;;;;;;;0.80;0.50;;;6.40;99.90;;;;;;5051493;28;20181;-64
2021/11/05 01:47:38;;;;;;;0.80;0.50;;;6.40;99.90;;;;;;5051498;28;20196;-65
2021/11/05 01:50:10;;;;;;;0.80;0.50;;;6.40;99.90;;;;;;5051489;28;20185;-65
2021/11/05 01:52:40;;;;;;;0.80;0.50;;;6.40;99.90;;;;;;5051715;28;20204;-65
2021/11/05 01:55:09;;;;;;;0.80;0.50;;;6.40;99.90;;;;;;5051703;28;20271;-65
2021/11/05 01:57:37;;;;;;;0.80;0.50;;;6.40;99.90;;;;;;5055493;28;20350;-65
2021/11/05 02:00:09;;;;;;;0.80;0.50;;;6.50;99.90;;;;;;5055286;28;20719;-66
2021/11/05 02:02:38;;;;;;;0.80;0.40;;;6.50;99.90;;;;;;5055035;28;20213;-67
2021/11/05 02:05:11;;;;;;;0.80;0.40;;;6.50;99.90;;;;;;5055176;28;20183;-66
2021/11/05 02:07:44;;;;;;;0.80;0.50;;;6.40;99.90;;;;;;5055191;28;20196;-65
2021/11/05 02:10:13;;;;;;;0.80;0.50;;;6.40;99.90;;;;;;5055129;28;20646;-65
2021/11/05 02:12:42;;;;;;;1.90;0.68;;;6.40;99.90;;;;;;5054978;28;20205;-66
2021/11/05 02:15:11;;;;;;;0.80;0.50;;;6.50;99.90;;;;;;5054730;28;20173;-65
2021/11/05 02:17:39;;;;;;;0.80;0.50;;;6.50;99.90;;;;;;5054859;28;20573;-65
2021/11/05 02:20:09;;;;;;;0.80;0.50;;;6.50;99.90;;;;;;5054933;28;20225;-65
2021/11/05 02:22:39;;;;;;;0.85;0.60;;;6.40;99.90;;;;;;5054772;28;20213;-66
2021/11/05 02:25:09;;;;;;;0.80;0.50;;;6.40;99.90;;;;;;5054979;28;20187;-66
2021/11/05 02:27:38;;;;;;;0.80;0.50;;;6.40;99.90;;;;;;5054462;28;20189;-65
2021/11/05 02:30:08;;;;;;;0.80;0.50;;;6.40;99.90;;;;;;5054247;28;20543;-66
2021/11/05 02:32:37;;;;;;;0.80;0.50;;;6.40;99.90;;;;;;5054136;28;20236;-66
2021/11/05 02:35:10;;;;;;;0.80;0.50;;;6.40;99.90;;;;;;5054466;28;20231;-65
2021/11/05 02:37:41;;;;;;;0.80;0.40;;;6.40;99.90;;;;;;5054273;28;20189;-65
2021/11/05 02:40:11;;;;;;;0.80;0.50;;;6.40;99.90;;;;;;5054193;28;20193;-66
2021/11/05 02:42:39;;;;;;;0.80;0.40;;;6.50;99.90;;;;;;5053942;28;20208;-66
2021/11/05 02:45:09;;;;;;;0.80;0.50;;;6.50;99.90;;;;;;5054008;28;20268;-65
2021/11/05 02:47:38;;;;;;;0.80;0.50;;;6.50;99.90;;;;;;5053991;28;20192;-64
2021/11/05 02:50:09;;;;;;;0.80;0.60;;;6.50;99.90;;;;;;5054119;28;20176;-65
2021/11/05 02:52:37;;;;;;;1.02;0.73;;;6.50;99.90;;;;;;5053989;28;20602;-65
2021/11/05 02:55:08;;;;;;;1.23;0.85;;;6.50;99.90;;;;;;5053709;28;20641;-65
2021/11/05 02:57:38;;;;;;;0.80;0.60;;;6.60;99.90;;;;;;5054016;28;20207;-64
2021/11/05 03:00:09;;;;;;;0.80;0.50;;;6.60;99.90;;;;;;5053793;28;20185;-65
2021/11/05 03:02:38;;;;;;;1.17;0.93;;;6.70;99.90;;;;;;5035750;28;20270;-65
2021/11/05 03:05:11;;;;;;;0.80;0.50;;;6.70;99.90;;;;;;5053879;28;20177;-65
2021/11/05 03:07:39;;;;;;;1.13;0.82;;;6.70;99.90;;;;;;5052918;28;20618;-65
2021/11/05 03:10:15;;;;;;;0.90;0.60;;;6.70;99.90;;;;;;5053658;28;20283;-65
2021/11/05 03:12:44;;;;;;;0.80;0.47;;;6.70;99.90;;;;;;5053270;28;20247;-65
2021/11/05 03:15:13;;;;;;;0.90;0.60;;;6.70;99.90;;;;;;5053270;28;20188;-65
2021/11/05 03:17:42;;;;;;;0.80;0.50;;;6.70;99.90;;;;;;5053388;28;20797;-64
2021/11/05 03:20:13;;;;;;;0.80;0.50;;;6.80;99.90;;;;;;5053660;28;20189;-65
2021/11/05 03:22:41;;;;;;;0.80;0.60;;;6.80;99.90;;;;;;5053438;28;20244;-65
2021/11/05 03:25:11;;;;;;;1.00;0.80;;;6.80;99.90;;;;;;5053229;28;20193;-65
2021/11/05 03:27:40;;;;;;;0.80;0.50;;;6.80;99.90;;;;;;5053023;28;20201;-64
2021/11/05 03:30:11;;;;;;;0.80;0.40;;;6.80;99.90;;;;;;5053120;28;20204;-65
2021/11/05 03:32:40;;;;;;;0.90;0.60;;;6.80;99.90;;;;;;5052927;28;20279;-66
2021/11/05 03:35:12;;;;;;;0.80;0.50;;;6.80;99.90;;;;;;5053015;28;20642;-65
2021/11/05 03:37:41;;;;;;;0.80;0.50;;;6.90;99.90;;;;;;5052716;28;20199;-64
2021/11/05 03:40:12;;;;;;;0.80;0.50;;;6.80;99.90;;;;;;5035106;28;20199;-65
2021/11/05 03:42:40;;;;;;;1.08;0.98;;;6.80;99.90;;;;;;5052827;28;20212;-65
2021/11/05 03:45:09;;;;;;;1.80;0.60;;;6.90;99.90;;;;;;5053091;28;20185;-65
2021/11/05 03:47:38;;;;;;;0.80;0.50;;;6.90;99.90;;;;;;5052890;28;20181;-65
2021/11/05 03:50:06;;;;;;;0.80;0.40;;;6.90;99.90;;;;;;5052912;28;20208;-65
2021/11/05 03:52:35;;;;;;;0.80;0.40;;;6.90;99.90;;;;;;5052711;28;20205;-66
2021/11/05 03:55:04;;;;;;;0.80;0.50;;;6.90;99.90;;;;;;5054526;28;20260;-65
2021/11/05 03:57:33;;;;;;;1.23;0.70;;;7.00;99.90;;;;;;5054191;28;20181;-65
2021/11/05 04:00:02;;;;;;;0.80;0.50;;;7.00;99.90;;;;;;5035974;28;20254;-65
2021/11/05 04:02:31;;;;;;;0.80;0.50;;;7.00;99.90;;;;;;5053474;28;20311;-65
2021/11/05 04:04:59;;;;;;;0.80;0.50;;;7.00;99.90;;;;;;5052583;28;20185;-66
2021/11/05 04:07:28;;;;;;;0.80;0.50;;;7.00;99.90;;;;;;5052601;28;20715;-65
2021/11/05 04:09:56;;;;;;;0.80;0.50;;;7.10;99.90;;;;;;5035213;28;20676;-65
2021/11/05 04:12:25;;;;;;;0.90;0.50;;;7.00;99.90;;;;;;5035704;28;20240;-65
2021/11/05 04:14:55;;;;;;;0.80;0.50;;;7.00;99.90;;;;;;5036129;28;20227;-65
2021/11/05 04:17:24;;;;;;;0.80;0.50;;;7.10;99.90;;;;;;5035497;28;20197;-65
2021/11/05 04:19:52;;;;;;;0.80;0.60;;;7.10;99.90;;;;;;5035417;28;20207;-65
2021/11/05 04:22:21;;;;;;;0.80;0.70;;;7.10;99.90;;;;;;5052397;28;20270;-66
2021/11/05 04:24:49;;;;;;;0.90;0.60;;;7.10;99.90;;;;;;5052156;28;20182;-65
2021/11/05 04:27:17;;;;;;;0.80;0.50;;;7.20;99.90;;;;;;5034276;28;20217;-65
2021/11/05 04:29:46;;;;;;;1.33;1.10;;;7.20;99.90;;;;;;5051826;28;20193;-65
2021/11/05 04:32:16;;;;;;;1.10;0.75;;;7.20;99.90;;;;;;5051935;28;20207;-65
2021/11/05 04:34:44;;;;;;;0.80;0.50;;;7.10;99.90;;;;;;5051816;28;20181;-65
2021/11/05 04:37:12;;;;;;;0.80;0.50;;;7.20;99.90;;;;;;5051907;28;20184;-65
2021/11/05 04:39:40;;;;;;;1.00;0.60;;;7.10;99.90;;;;;;5052731;28;20176;-65
2021/11/05 04:42:09;;;;;;;0.80;0.50;;;7.20;99.90;;;;;;5052140;28;20268;-65
2021/11/05 04:44:37;;;;;;;1.50;0.60;;;7.30;99.90;;;;;;5051927;28;20185;-65
2021/11/05 04:47:09;;;;;;;0.80;0.50;;;7.30;99.90;;;;;;5051930;28;20267;-64
2021/11/05 04:49:39;;;;;;;1.00;0.60;;;7.30;99.90;;;;;;5051557;28;20189;-65
2021/11/05 04:52:09;;;;;;;1.10;0.70;;;7.30;99.90;;;;;;5052180;28;20619;-63
2021/11/05 04:54:37;;;;;;;1.02;0.50;;;7.30;99.90;;;;;;5051527;28;20181;-64
2021/11/05 04:57:06;;;;;;;1.00;0.70;;;7.30;99.90;;;;;;5051553;28;20196;-65
2021/11/05 04:59:34;;;;;;;1.00;0.70;;;7.30;99.90;;;;;;5051404;28;20184;-65
2021/11/05 05:02:02;;;;;;;0.90;0.70;;;7.30;99.90;;;;;;5051640;28;20204;-65
2021/11/05 05:04:31;;;;;;;2.33;0.80;;;7.40;99.90;;;;;;5051452;28;20203;-65
2021/11/05 05:07:00;;;;;;;1.20;0.77;;;7.30;99.90;;;;;;5051068;28;20177;-66
2021/11/05 05:09:28;;;;;;;0.90;0.68;;;7.40;99.90;;;;;;5033706;28;20629;-65
2021/11/05 05:11:57;;;;;;;1.70;0.60;;;7.30;99.90;;;;;;5051586;28;20165;-65
2021/11/05 05:14:25;;;;;;;1.25;0.80;;;7.40;99.90;;;;;;5051750;28;20215;-65
2021/11/05 05:16:53;;;;;;;0.80;0.50;;;7.40;99.90;;;;;;5033770;28;20528;-66
2021/11/05 05:19:21;;;;;;;0.80;0.50;;;7.40;99.90;;;;;;5051307;28;20181;-65
2021/11/05 05:21:50;;;;;;;0.80;0.60;;;7.30;99.90;;;;;;5051767;28;20201;-65
2021/11/05 05:24:19;;;;;;;2.65;1.75;;;7.30;99.90;;;;;;5051748;28;20523;-64
2021/11/05 05:26:47;;;;;;;0.90;0.57;;;7.30;99.90;;;;;;5033357;28;20664;-65
2021/11/05 05:29:15;;;;;;;0.80;0.40;;;7.30;99.90;;;;;;5051017;28;20722;-65
2021/11/05 05:31:44;;;;;;;0.93;0.73;;;7.30;99.90;;;;;;5036219;28;20216;-64
2021/11/05 05:34:13;;;;;;;1.35;0.63;;;7.30;99.90;;;;;;5055280;28;20189;-65
2021/11/05 05:36:41;;;;;;;2.80;0.82;;;7.40;99.90;;;;;;5055269;28;20250;-65
2021/11/05 05:39:09;;;;;;;0.80;0.50;;;7.40;99.90;;;;;;5055106;28;20454;-65
2021/11/05 05:41:39;;;;;;;1.08;0.95;;;7.30;99.90;;;;;;5054945;28;20207;-63
2021/11/05 05:44:07;;;;;;;0.85;0.63;;;7.40;99.90;;;;;;5055320;28;20684;-64
2021/11/05 05:46:35;;;;;;;1.45;0.90;;;7.40;99.90;;;;;;5055716;28;20165;-65
2021/11/05 05:49:03;;;;;;;0.80;0.60;;;7.40;99.90;;;;;;5056973;28;20208;-65
2021/11/05 05:51:33;;;;;;;1.27;1.05;;;7.40;99.90;;;;;;5056669;28;20189;-65
2021/11/05 05:54:01;;;;;;;1.10;0.85;;;7.40;99.90;;;;;;5055822;28;20212;-65
2021/11/05 05:56:30;;;;;;;0.80;0.50;;;7.40;99.90;;;;;;5055893;28;20189;-65
2021/11/05 05:58:59;;;;;;;1.25;0.80;;;7.40;99.90;;;;;;5055736;28;20185;-65
2021/11/05 06:01:28;;;;;;;0.80;0.50;;;7.40;99.90;;;;;;5055212;28;20184;-65
2021/11/05 06:03:59;;;;;;;1.10;0.70;;;7.40;99.90;;;;;;5055158;28;20611;-64
2021/11/05 06:06:32;;;;;;;0.80;0.50;;;7.40;99.90;;;;;;5055379;28;20231;-65
2021/11/05 06:09:01;;;;;;;1.10;0.75;;;7.40;99.90;;;;;;5055873;28;20279;-66
2021/11/05 06:11:29;;;;;;;1.10;1.00;;;7.40;99.90;;;;;;5054615;28;20585;-64
2021/11/05 06:13:58;;;;;;;0.80;0.70;;;7.40;99.90;;;;;;5055147;28;20217;-65
2021/11/05 06:16:27;;;;;;;3.28;1.40;;;7.40;99.90;;;;;;5054644;28;20541;-66
2021/11/05 06:18:55;;;;;;;1.42;0.80;;;7.40;99.90;;;;;;5054734;28;20272;-65
2021/11/05 06:21:25;;;;;;;1.10;0.88;;;7.50;99.90;;;;;;5054499;28;20268;-66
2021/11/05 06:23:54;;;;;;;3.53;0.73;;;7.50;99.90;;;;;;5054182;28;20302;-65
2021/11/05 06:26:22;;;;;;;1.23;1.02;;;7.50;99.90;;;;;;5053165;28;20181;-65
2021/11/05 06:28:50;;;;;;;1.25;0.65;;;7.50;99.90;;;;;;5054393;28;20589;-65
2021/11/05 06:31:20;;;;;;;0.80;0.55;;;7.40;99.90;;;;;;5054724;28;20177;-65
2021/11/05 06:33:48;;;;;;;0.80;0.60;;;7.50;99.90;;;;;;5054419;28;20200;-65
2021/11/05 06:36:16;;;;;;;0.98;0.68;;;7.50;99.90;;;;;;5054317;28;20216;-65
2021/11/05 06:38:44;;;;;;;1.30;1.02;;;7.50;99.90;;;;;;5054792;28;20189;-64
2021/11/05 06:41:15;;;;;;;1.27;1.17;;;7.50;99.90;;;;;;5055973;28;20173;-65
2021/11/05 06:43:43;;;;;;;0.90;0.70;;;7.50;99.90;;;;;;5055178;28;20204;-65
2021/11/05 06:46:11;;;;;;;1.60;0.80;;;7.60;99.90;;;;;;5056206;28;20188;-65
2021/11/05 06:48:41;;;;;;;2.05;0.85;;;7.60;99.90;;;;;;5056270;28;20718;-64
2021/11/05 06:51:10;;;;;;;5.22;1.55;;;7.60;99.90;;;;;;5054949;28;20189;-65
2021/11/05 06:53:38;;;;;;;2.10;0.75;;;7.60;99.90;;;;;;5054742;28;20197;-64
2021/11/05 06:56:06;;;;;;;0.80;0.50;;;7.70;99.90;;;;;;5054049;28;20196;-64
2021/11/05 06:58:36;;;;;;;0.90;0.70;;;7.70;99.90;;;;;;5054111;28;20215;-64
2021/11/05 07:01:05;;;;;;;0.80;0.60;;;7.70;99.90;;;;;;5053972;28;20204;-64
2021/11/05 07:03:33;;;;;;;0.95;0.60;;;7.70;99.90;;;;;;5053742;28;20212;-64
2021/11/05 07:06:03;;;;;;;0.90;0.68;;;7.80;99.90;;;;;;5053577;28;20192;-64
2021/11/05 07:08:31;;;;;;;1.23;0.55;;;7.80;99.90;;;;;;5092702;22;20227;-63
2021/11/05 07:11:00;;;;;;;1.00;0.80;;;7.80;99.90;;;;;;5094574;28;20205;-63
2021/11/05 07:13:28;;;;;;;1.00;0.68;;;7.60;99.90;;;;;;5094023;28;20191;-63
2021/11/05 07:15:56;;;;;;;0.90;0.70;;;7.70;99.90;;;;;;5094559;28;20184;-64
2021/11/05 07:18:25;;;;;;;1.02;0.70;;;7.70;99.90;;;;;;5094322;28;20178;-68
2021/11/05 07:20:53;;;;;;;1.55;1.08;;;7.70;99.90;;;;;;5094119;28;20215;-64
2021/11/05 07:23:23;;;;;;;0.80;0.68;;;7.70;99.90;;;;;;5093838;28;20219;-64
2021/11/05 07:25:51;;;;;;;3.05;1.65;;;7.70;99.90;;;;;;5093599;28;20187;-64
2021/11/05 07:28:19;;;;;;;1.17;1.08;;;7.60;99.90;;;;;;5094002;28;20697;-65
2021/11/05 07:30:48;;;;;;;1.05;0.88;;;7.70;99.90;;;;;;5093450;28;20179;-65
2021/11/05 07:33:16;;;;;;;0.90;0.60;;;7.70;99.90;;;;;;5093352;28;20546;-63
2021/11/05 07:35:44;;;;;;;2.45;1.10;;;7.80;99.90;;;;;;5093565;28;20517;-64
2021/11/05 07:38:12;;;;;;;0.80;0.50;;;7.80;99.90;;;;;;5093222;28;20585;-63
2021/11/05 07:40:42;;;;;;;3.38;1.00;;;7.80;99.90;;;;;;5093403;28;20237;-62
2021/11/05 07:43:11;;;;;;;0.80;0.50;;;7.80;99.90;;;;;;5075318;28;20615;-63
2021/11/05 07:45:39;;;;;;;0.80;0.50;;;7.70;99.90;;;;;;5093387;28;20180;-63
2021/11/05 07:48:07;;;;;;;0.80;0.50;;;7.80;99.90;;;;;;5093514;28;20187;-63
2021/11/05 07:50:35;;;;;;;2.47;2.10;;;7.80;99.90;;;;;;5093192;28;20259;-64
2021/11/05 07:53:05;;;;;;;0.80;0.50;;;7.80;99.90;;;;;;5092914;28;20579;-63
2021/11/05 07:55:34;;;;;;;1.92;1.33;;;7.80;99.90;;;;;;5093539;28;20608;-63
2021/11/05 07:58:04;;;;;;;1.42;1.23;;;7.80;99.90;;;;;;5093897;28;20298;-65
2021/11/05 08:00:32;;;;;;;1.50;1.40;;;7.80;99.90;;;;;;5093282;28;20179;-64
2021/11/05 08:03:01;;;;;;;2.65;0.70;;;7.80;99.90;;;;;;5093260;28;20680;-63
2021/11/05 08:05:29;;;;;;;3.70;0.90;;;7.80;99.90;;;;;;5093348;28;20182;-63
2021/11/05 08:07:57;;;;;;;2.75;0.95;;;7.80;99.90;;;;;;5093041;28;20196;-63
2021/11/05 08:10:25;;;;;;;2.78;0.90;;;7.80;99.90;;;;;;5093066;28;20172;-63
2021/11/05 08:12:54;;;;;;;0.90;0.73;;;7.90;99.90;;;;;;5093213;28;20218;-61
2021/11/05 08:15:23;;;;;;;0.80;0.60;;;7.90;99.90;;;;;;5092915;28;20685;-64
2021/11/05 08:17:52;;;;;;;0.80;0.50;;;8.00;99.90;;;;;;5092815;28;20551;-64
2021/11/05 08:20:20;;;;;;;2.90;1.17;;;8.00;99.90;;;;;;5092802;28;20193;-64
2021/11/05 08:22:49;;;;;;;1.00;0.63;;;8.20;99.90;;;;;;5092860;28;20598;-63
2021/11/05 08:25:19;;;;;;;0.80;0.45;;;8.20;99.90;;;;;;5092897;28;20171;-64
2021/11/05 08:27:49;;;;;;;3.08;1.20;;;8.20;99.90;;;;;;5093039;28;20198;-64
2021/11/05 08:30:21;;;;;;;0.80;0.60;;;8.20;99.90;;;;;;5092643;28;20191;-60
2021/11/05 08:32:53;;;;;;;1.05;0.73;;;8.20;99.90;;;;;;5093091;28;20215;-62
2021/11/05 08:35:24;;;;;;;2.33;0.85;;;8.20;99.90;;;;;;5092615;28;20183;-64
2021/11/05 08:37:53;;;;;;;1.80;1.02;;;8.30;99.90;;;;;;5092767;28;20190;-62
2021/11/05 08:40:21;;;;;;;1.55;1.38;;;8.50;99.90;;;;;;5092365;28;20179;-63
2021/11/05 08:42:50;;;;;;;1.55;1.45;;;8.50;99.90;;;;;;5092302;28;20702;-63
2021/11/05 08:45:19;;;;;;;0.80;0.60;;;8.40;99.90;;;;;;5092126;28;20196;-64
2021/11/05 08:47:47;;;;;;;1.77;0.82;;;8.40;99.90;;;;;;5092220;28;20194;-65
2021/11/05 08:50:19;;;;;;;2.42;1.10;;;8.60;99.90;;;;;;5092217;28;20176;-64
2021/11/05 08:52:47;;;;;;;1.00;0.90;;;8.60;99.90;;;;;;5091870;28;20215;-66
2021/11/05 08:55:16;;;;;;;1.00;0.70;;;8.50;99.90;;;;;;5091807;28;20187;-63
2021/11/05 08:57:44;;;;;;;3.42;1.83;;;8.60;99.90;;;;;;5092113;28;20175;-64
2021/11/05 09:00:15;;;;;;;5.00;1.42;;;8.60;99.90;;;;;;5092035;28;20183;-64
2021/11/05 09:02:45;;;;;;;1.48;0.77;;;8.60;99.90;;;;;;5092160;28;20207;-64
2021/11/05 09:05:18;;;;;;;1.35;0.98;;;8.70;99.90;;;;;;5091086;28;20199;-63
2021/11/05 09:07:47;;;;;;;2.30;1.00;;;8.70;99.90;;;;;;5091625;28;20244;-63
2021/11/05 09:10:17;;;;;;;0.90;0.60;;;8.80;99.90;;;;;;5091958;28;20209;-62
2021/11/05 09:12:45;;;;;;;0.90;0.60;;;8.70;99.90;;;;;;5091775;28;20214;-62
2021/11/05 09:15:16;;;;;;;0.95;0.70;;;8.60;99.90;;;;;;5091624;28;20655;-62
2021/11/05 09:17:44;;;;;;;1.00;0.70;;;8.70;99.90;;;;;;5092190;28;20175;-64
2021/11/05 09:20:14;;;;;;;2.25;1.15;;;8.60;99.90;;;;;;5093425;28;20263;-63
2021/11/05 09:22:44;;;;;;;1.42;0.70;;;8.50;99.90;;;;;;5092376;28;20199;-64
2021/11/05 09:25:12;;;;;;;0.80;0.50;;;8.60;99.90;;;;;;5091617;28;20191;-63
2021/11/05 09:27:43;;;;;;;2.83;0.85;;;8.60;99.90;;;;;;5091731;28;20746;-63
2021/11/05 09:30:13;;;;;;;1.88;1.77;;;8.60;99.90;;;;;;5091942;28;20183;-63
2021/11/05 09:32:41;;;;;;;1.70;1.00;;;8.70;99.90;;;;;;5091733;28;20203;-63
2021/11/05 09:35:10;;;;;;;1.38;1.10;;;8.70;99.90;;;;;;5091688;28;20172;-62
2021/11/05 09:37:39;;;;;;;3.38;1.35;;;8.80;99.90;;;;;;5091439;28;20652;-65
2021/11/05 09:40:13;;;;;;;0.80;0.50;;;8.90;99.90;;;;;;5091439;28;20203;-63
2021/11/05 09:42:42;;;;;;;1.90;0.65;;;8.90;99.90;;;;;;5091783;28;20207;-63
2021/11/05 09:45:11;;;;;;;2.00;1.60;;;8.90;99.90;;;;;;5091160;28;20564;-64
2021/11/05 09:47:40;;;;;;;0.80;0.50;;;8.90;99.90;;;;;;5109466;28;20213;-62
2021/11/05 09:50:09;;;;;;;3.92;0.90;;;8.80;99.90;;;;;;5111711;28;20195;-63
2021/11/05 09:52:38;;;;;;;1.42;1.15;;;8.90;99.90;;;;;;5111727;28;20202;-64
2021/11/05 09:55:09;;;;;;;1.13;1.02;;;9.00;99.90;;;;;;5093699;28;20187;-64
2021/11/05 09:57:38;;;;;;;0.90;0.60;;;9.10;99.90;;;;;;5112512;28;20655;-61
2021/11/05 10:00:12;;;;;;;1.00;0.82;;;9.20;99.90;;;;;;5112206;28;20178;-63
2021/11/05 10:02:43;;;;;;;1.00;0.90;;;9.20;99.90;;;;;;5113210;28;20221;-64
2021/11/05 10:05:12;;;;;;;5.22;1.67;;;9.20;99.90;;;;;;5112170;28;20199;-63
2021/11/05 10:07:47;;;;;;;1.00;0.80;;;9.10;99.90;;;;;;5111942;28;20285;-61
2021/11/05 10:10:22;;;;;;;1.10;0.93;;;9.10;99.90;;;;;;5112531;28;20186;-65
2021/11/05 10:13:01;;;;;;;1.10;0.80;;;9.10;99.90;;;;;;5112367;28;20206;-66
2021/11/05 10:15:37;;;;;;;0.80;0.65;;;9.30;99.90;;;;;;5111748;28;20182;-63
2021/11/05 10:18:13;;;;;;;2.15;0.80;;;9.20;99.90;;;;;;5115529;28;20167;-65
2021/11/05 10:20:41;;;;;;;1.65;0.95;;;9.20;99.90;;;;;;5097517;28;20190;-61
2021/11/05 10:23:10;;;;;;;0.80;0.57;;;9.00;99.90;;;;;;5115857;28;20699;-62
2021/11/05 10:25:44;;;;;;;1.10;0.60;;;8.90;99.90;;;;;;5115935;28;20592;-61
2021/11/05 10:28:21;;;;;;;0.95;0.55;;;8.90;99.90;;;;;;5115340;28;20163;-63
2021/11/05 10:31:00;;;;;;;0.80;0.50;;;9.00;99.90;;;;;;5115416;28;20170;-66
2021/11/05 10:33:32;;;;;;;0.80;0.50;;;9.00;99.90;;;;;;5115240;28;20217;-61
2021/11/05 10:36:04;;;;;;;1.10;0.73;;;9.00;99.90;;;;;;5115132;28;20730;-61
2021/11/05 10:38:35;;;;;;;0.80;0.50;;;9.10;99.90;;;;;;5115356;28;20262;-63
2021/11/05 10:41:08;;;;;;;1.00;0.80;;;9.20;99.90;;;;;;5115295;28;20183;-66
2021/11/05 10:43:42;;;;;;;0.98;0.82;;;9.20;99.90;;;;;;5114812;28;20208;-63
2021/11/05 10:46:25;;;;;;;1.23;1.13;;;9.30;99.90;;;;;;5114695;28;20272;-63
2021/11/05 10:48:54;;;;;;;0.90;0.60;;;9.30;99.90;;;;;;5114888;28;20829;-62
2021/11/05 10:51:26;;;;;;;1.38;0.90;;;9.40;99.90;;;;;;5114671;28;20193;-62
2021/11/05 10:53:57;;;;;;;1.83;0.80;;;9.50;99.90;;;;;;5114973;28;20230;-60
2021/11/05 10:56:29;;;;;;;1.13;1.02;;;9.40;99.90;;;;;;5114645;28;20191;-63
2021/11/05 10:58:59;;;;;;;1.35;0.95;;;9.40;99.90;;;;;;5114506;28;20627;-64
2021/11/05 11:01:34;;;;;;;0.80;0.50;;;9.60;99.90;;;;;;5114436;28;20179;-63
2021/11/05 11:04:04;;;;;;;0.90;0.63;;;9.60;99.90;;;;;;5114226;28;20269;-64
2021/11/05 11:06:34;;;;;;;0.80;0.50;;;9.50;99.90;;;;;;5114021;28;20191;-64
2021/11/05 11:09:06;;;;;;;0.80;0.50;;;9.50;99.90;;;;;;5114176;28;20178;-63
2021/11/05 11:11:38;;;;;;;0.90;0.50;;;9.50;99.90;;;;;;5114376;28;20228;-63
2021/11/05 11:14:08;;;;;;;0.80;0.50;;;9.60;99.90;;;;;;5114487;28;20312;-62
2021/11/05 11:16:38;;;;;;;1.75;0.82;;;9.60;99.90;;;;;;5095862;28;20186;-63
2021/11/05 11:19:09;;;;;;;1.63;0.80;;;9.50;99.90;;;;;;5114056;28;20214;-63
2021/11/05 11:21:39;;;;;;;1.20;0.75;;;9.50;99.90;;;;;;5114268;28;20639;-61
2021/11/05 11:24:10;;;;;;;0.80;0.50;;;9.50;99.90;;;;;;5113924;28;20277;-63
2021/11/05 11:26:40;;;;;;;1.00;0.88;;;9.60;99.90;;;;;;5113730;28;20195;-64
2021/11/05 11:29:10;;;;;;;1.25;1.13;;;9.60;99.90;;;;;;5113248;28;20179;-63
2021/11/05 11:31:39;;;;;;;1.25;1.15;;;9.80;99.90;;;;;;5114189;28;20391;-64
2021/11/05 11:34:09;;;;;;;0.80;0.50;;;9.70;99.90;;;;;;5114046;28;20211;-64
2021/11/05 11:36:41;;;;;;;0.90;0.57;;;9.70;99.90;;;;;;5114196;28;20185;-64
2021/11/05 11:39:11;;;;;;;0.80;0.50;;;9.80;99.90;;;;;;5095436;28;20556;-64
2021/11/05 11:41:43;;;;;;;1.10;0.88;;;9.70;99.90;;;;;;5113878;28;20178;-62
2021/11/05 11:44:15;;;;;;;2.00;1.53;;;9.70;99.90;;;;;;5113563;28;20217;-63
2021/11/05 11:46:55;;;;;;;1.25;1.15;;;9.70;99.90;;;;;;5113367;28;20971;-62
2021/11/05 11:49:36;;;;;;;1.00;0.60;;;9.60;99.90;;;;;;5113464;28;20208;-63
2021/11/05 11:52:07;;;;;;;1.60;0.73;;;9.50;99.90;;;;;;5100557;28;20213;-66
2021/11/05 11:54:36;;;;;;;0.80;0.50;;;9.60;99.90;;;;;;5092781;28;20176;-63
2021/11/05 11:57:14;;;;;;;0.80;0.60;;;9.60;99.90;;;;;;5092690;28;20175;-63
2021/11/05 11:59:44;;;;;;;0.98;0.88;;;9.60;99.90;;;;;;5093297;28;20580;-64
2021/11/05 12:02:33;;;;;;;1.55;0.80;;;9.70;99.90;;;;;;5074408;28;20559;-64
2021/11/05 12:05:02;;;;;;;1.75;0.60;;;9.90;99.90;;;;;;5092491;28;20258;-64
2021/11/05 12:07:30;;;;;;;1.00;0.70;;;10.00;99.90;;;;;;5093372;28;20202;-64
2021/11/05 12:10:23;;;;;;;0.90;0.50;;;10.00;99.90;;;;;;5093298;28;20610;-64
2021/11/05 12:12:53;;;;;;;0.80;0.50;;;10.10;99.90;;;;;;5093209;28;20445;-62
2021/11/05 12:15:21;;;;;;;1.00;0.60;;;10.20;99.90;;;;;;5092531;28;20187;-62
2021/11/05 12:18:09;;;;;;;1.60;0.70;;;10.20;99.90;;;;;;5092172;28;20493;-63
2021/11/05 12:20:40;;;;;;;0.80;0.50;;;10.10;99.90;;;;;;5092259;28;20410;-64
2021/11/05 12:23:22;;;;;;;0.90;0.70;;;10.10;99.90;;;;;;5073959;28;20457;-62
2021/11/05 12:25:57;;;;;;;0.90;0.60;;;10.10;99.90;;;;;;5092178;28;20260;-63
2021/11/05 12:28:37;;;;;;;0.80;0.63;;;10.20;99.90;;;;;;5092494;28;20868;-62
2021/11/05 12:31:29;;;;;;;1.08;0.60;;;10.30;99.90;;;;;;5092392;28;20460;-61
2021/11/05 12:34:25;;;;;;;0.90;0.50;;;10.40;99.90;;;;;;5091954;28;20202;-64
2021/11/05 12:36:56;;;;;;;0.80;0.50;;;10.50;99.90;;;;;;5091887;28;20203;-63
2021/11/05 12:39:30;;;;;;;1.50;1.00;;;10.60;99.90;;;;;;5091574;28;20410;-63
2021/11/05 12:42:03;;;;;;;1.47;1.37;;;10.70;99.90;;;;;;5073204;28;20449;-63
2021/11/05 12:44:54;;;;;;;1.80;1.53;;;10.60;99.90;;;;;;5091853;28;20417;-60
2021/11/05 12:47:46;;;;;;;1.57;0.70;;;10.60;99.90;;;;;;5091521;28;20605;-65
2021/11/05 12:50:20;;;;;;;2.00;0.87;;;10.50;99.90;;;;;;5073498;28;20468;-63
2021/11/05 12:52:54;;;;;;;1.20;0.70;;;10.60;99.90;;;;;;5091358;28;20444;-64
2021/11/05 12:55:22;;;;;;;1.67;1.57;;;10.70;99.90;;;;;;5091418;28;20433;-62
2021/11/05 12:57:52;;;;;;;1.23;0.60;;;10.60;99.90;;;;;;5091727;28;20450;-65
2021/11/05 13:00:22;;;;;;;0.87;0.50;;;10.60;99.90;;;;;;5073809;28;20802;-58
2021/11/05 13:02:51;;;;;;;1.23;0.83;;;10.70;99.90;;;;;;5091484;28;20437;-63
2021/11/05 13:05:22;;;;;;;0.97;0.60;;;10.80;99.90;;;;;;5091532;28;20436;-62
2021/11/05 13:07:55;;;;;;;1.30;1.13;;;10.70;99.90;;;;;;5091212;28;20429;-65
2021/11/05 13:10:24;;;;;;;1.20;1.03;;;10.80;99.90;;;;;;5091980;28;20421;-65